3R7

Jennings Airport

Jennings, Louisiana, USA
METAR K3R7 190615Z AUTO 18010G15KT 10SM OVC009 19/18 A2985 RMK AO2 LTG DSNT NE T01900180
Observed Flight Rules
Jan-19 @ 06:15 UTC (17 minutes ago) Instrument Flight Rules
Wind Visibility Clouds
180° at 10 knots
 Gusting to 15 knots
10 miles
  • Overcast at 900' AGL
Temperatures Readings
Current 19°C / 66°F
Dewpoint 18°C / 64°F
Humidity 94%
Altimeter 29.85" Hg
Pressure 1010.82 hPa
Elevation 7
METAR K3R7 190615Z AUTO 18010G15KT 10SM OVC009 19/18 A2985 RMK AO2 LTG DSNT NE T01900180
Observed Flight Rules
Jan-19 @ 06:15 UTC
(17 minutes ago)
IFR
Wind Visibility
180° at 10 knots
 Gusting to 15 knots
10 miles
Clouds
  • Overcast at 900' AGL
Temperature Dewpoint
19°C / 66°F 18°C / 64°F
Humidity Altimeter Pressure
94% 29.85" Hg 1010.82 hPa